Time;durP1;ratioP1;P1;durP2;ratioP2;P2;SDS_P1;SDS_P2;PMS_P1;PMS_P2;Temp;Humidity;BMP_temperature;BMP_pressure;BME280_temperature;BME280_humidity;BME280_pressure;Samples;Min_cycle;Max_cycle;Signal;HPM_P1;HPM_P2
2024/03/04 05:00:13;;;;;;;29.58;15.13;;;6.50;99.90;;;;;;6030688;23;20631;31
2024/03/04 05:02:40;;;;;;;40.72;22.65;;;6.50;99.90;;;;;;4945212;28;20217;-70
2024/03/04 05:05:08;;;;;;;37.08;21.45;;;6.50;99.90;;;;;;4950803;28;20260;-70
2024/03/04 05:07:35;;;;;;;40.13;24.08;;;6.50;99.90;;;;;;4957361;28;20205;-70
2024/03/04 05:10:03;;;;;;;41.50;21.20;;;6.60;99.90;;;;;;4950316;28;20233;-70
2024/03/04 05:12:30;;;;;;;37.80;18.30;;;6.60;99.90;;;;;;4940554;28;20273;-70
2024/03/04 05:14:56;;;;;;;30.08;16.05;;;6.50;99.90;;;;;;4942228;28;20527;-70
2024/03/04 05:17:25;;;;;;;33.72;20.70;;;6.50;99.90;;;;;;4947466;28;20981;-70
2024/03/04 05:19:51;;;;;;;38.03;20.33;;;6.50;99.90;;;;;;4944365;28;20268;-70
2024/03/04 05:22:18;;;;;;;32.33;20.45;;;6.50;99.90;;;;;;4937564;28;20236;-70
2024/03/04 05:24:45;;;;;;;34.78;18.30;;;6.50;99.90;;;;;;4941685;28;20206;-71
2024/03/04 05:27:12;;;;;;;40.22;18.02;;;6.50;99.90;;;;;;4950055;28;20634;-70
2024/03/04 05:29:38;;;;;;;41.45;18.92;;;6.50;99.90;;;;;;4936717;28;20240;-70
2024/03/04 05:32:07;;;;;;;35.33;17.88;;;6.50;99.90;;;;;;4937413;28;20234;-70
2024/03/04 05:34:35;;;;;;;34.60;17.40;;;6.40;99.90;;;;;;4933992;28;20206;-70
2024/03/04 05:37:01;;;;;;;37.38;21.25;;;6.40;99.90;;;;;;4948571;28;20206;-70
2024/03/04 05:39:31;;;;;;;43.33;22.20;;;6.40;99.90;;;;;;4944442;28;20214;-70
2024/03/04 05:41:58;;;;;;;50.10;23.02;;;6.40;99.90;;;;;;4941453;28;20230;-70
2024/03/04 05:44:24;;;;;;;39.33;23.45;;;6.40;99.90;;;;;;4948308;28;20209;-72
2024/03/04 05:46:51;;;;;;;39.25;20.00;;;6.40;99.90;;;;;;4939367;28;20210;-71
2024/03/04 05:49:18;;;;;;;43.60;22.90;;;6.40;99.90;;;;;;4952920;28;20213;-71
2024/03/04 05:51:46;;;;;;;51.00;19.67;;;6.40;99.90;;;;;;4945152;28;20291;-71
2024/03/04 05:54:13;;;;;;;40.42;20.33;;;6.40;99.90;;;;;;4950486;28;20213;-71
2024/03/04 05:56:43;;;;;;;38.90;23.58;;;6.40;99.90;;;;;;4941394;28;20692;-71
2024/03/04 05:59:10;;;;;;;41.45;18.20;;;6.40;99.90;;;;;;4938168;28;20727;-71
2024/03/04 06:01:37;;;;;;;43.60;20.63;;;6.40;99.90;;;;;;4939945;28;20345;-71
2024/03/04 06:04:04;;;;;;;43.05;19.08;;;6.40;99.90;;;;;;4944438;28;20833;-71
2024/03/04 06:06:31;;;;;;;45.63;21.70;;;6.40;99.90;;;;;;4944667;28;20205;-71
2024/03/04 06:08:59;;;;;;;34.90;19.02;;;6.40;99.90;;;;;;4941127;28;20221;-71
2024/03/04 06:11:26;;;;;;;39.65;20.63;;;6.40;99.90;;;;;;4944943;28;20234;-70
2024/03/04 06:13:53;;;;;;;51.90;21.48;;;6.40;99.90;;;;;;4951237;28;20209;-71
2024/03/04 06:16:20;;;;;;;40.10;21.00;;;6.50;99.90;;;;;;4952175;28;20247;-71
2024/03/04 06:18:48;;;;;;;40.95;24.45;;;6.40;99.90;;;;;;4950854;28;20215;-71
2024/03/04 06:21:15;;;;;;;42.75;21.08;;;6.40;99.90;;;;;;4940476;28;20252;-71
2024/03/04 06:23:42;;;;;;;38.35;19.60;;;6.40;99.90;;;;;;4941921;28;20247;-70
2024/03/04 06:26:11;;;;;;;42.78;20.15;;;6.50;99.90;;;;;;4951231;28;20213;-70
2024/03/04 06:28:38;;;;;;;43.80;19.88;;;6.50;99.90;;;;;;4948224;29;20210;-70
2024/03/04 06:31:05;;;;;;;38.03;22.33;;;6.60;99.90;;;;;;4949471;28;20252;-70
2024/03/04 06:33:32;;;;;;;43.92;22.00;;;6.50;99.90;;;;;;4951730;28;20237;-70
2024/03/04 06:35:58;;;;;;;39.80;18.75;;;6.60;99.90;;;;;;4940567;28;20636;-70
2024/03/04 06:38:25;;;;;;;43.50;22.13;;;6.50;99.90;;;;;;4949055;29;20233;-70
2024/03/04 06:40:52;;;;;;;45.05;24.38;;;6.60;99.90;;;;;;4946725;28;20712;-70
2024/03/04 06:43:20;;;;;;;46.85;23.75;;;6.60;99.90;;;;;;4941772;28;20236;-70
2024/03/04 06:45:47;;;;;;;50.85;23.55;;;6.60;99.90;;;;;;4954069;28;20210;-70
2024/03/04 06:48:14;;;;;;;46.97;24.35;;;6.60;99.90;;;;;;4953287;28;20225;-70
2024/03/04 06:50:41;;;;;;;34.83;17.75;;;6.60;99.90;;;;;;4949805;28;20260;-71
2024/03/04 06:53:08;;;;;;;39.90;21.20;;;6.60;99.90;;;;;;4943854;29;20213;-71
2024/03/04 06:55:35;;;;;;;53.75;24.27;;;6.60;99.90;;;;;;4952659;28;20214;-70
2024/03/04 06:58:02;;;;;;;42.92;24.23;;;6.60;99.90;;;;;;4947282;28;20213;-70
2024/03/04 07:00:30;;;;;;;46.70;21.35;;;6.60;99.90;;;;;;4946383;28;20559;-70
2024/03/04 07:02:57;;;;;;;35.70;20.10;;;6.70;99.90;;;;;;4948905;28;20373;-70
2024/03/04 07:05:24;;;;;;;52.70;23.15;;;6.70;99.90;;;;;;4950735;28;20232;-70
2024/03/04 07:07:51;;;;;;;46.40;23.38;;;6.70;99.90;;;;;;4947424;28;20209;-71
2024/03/04 07:10:18;;;;;;;40.30;22.13;;;6.80;99.90;;;;;;4946390;28;20215;-71
2024/03/04 07:12:45;;;;;;;42.17;23.20;;;6.80;99.90;;;;;;4950322;28;20673;-71
2024/03/04 07:15:12;;;;;;;46.95;20.60;;;6.80;99.90;;;;;;4950711;28;20273;-71
2024/03/04 07:17:40;;;;;;;48.08;23.00;;;6.70;99.90;;;;;;4944234;28;20217;-71
2024/03/04 07:20:11;;;;;;;48.45;22.85;;;6.70;99.90;;;;;;4945727;28;20217;-71
2024/03/04 07:22:38;;;;;;;39.95;20.88;;;6.70;99.90;;;;;;4942664;28;20229;-69
2024/03/04 07:25:06;;;;;;;51.42;23.80;;;6.70;99.90;;;;;;4943578;28;20222;-70
2024/03/04 07:27:33;;;;;;;37.75;22.40;;;6.70;99.90;;;;;;4946291;28;20218;-71
2024/03/04 07:30:00;;;;;;;45.65;21.77;;;6.70;99.90;;;;;;4946790;28;20214;-70
2024/03/04 07:32:27;;;;;;;40.47;21.65;;;6.80;99.90;;;;;;4940057;28;20238;-70
2024/03/04 07:34:55;;;;;;;46.97;23.42;;;6.80;99.90;;;;;;4940233;28;20310;-70
2024/03/04 07:37:22;;;;;;;49.50;21.02;;;6.80;99.90;;;;;;4945128;28;20205;-70
2024/03/04 07:39:49;;;;;;;43.58;23.63;;;6.80;99.90;;;;;;4937355;29;20216;-70
2024/03/04 07:42:15;;;;;;;49.15;23.08;;;6.90;99.90;;;;;;4939227;28;20217;-70
2024/03/04 07:44:44;;;;;;;38.85;21.08;;;6.90;99.90;;;;;;4939758;29;20294;-68
2024/03/04 07:47:11;;;;;;;47.10;22.88;;;6.90;99.90;;;;;;4944387;29;20680;-70
2024/03/04 07:49:38;;;;;;;51.90;25.45;;;7.00;99.90;;;;;;4940040;28;20306;-70
2024/03/04 07:52:06;;;;;;;50.65;24.02;;;7.10;99.90;;;;;;4941425;28;20234;-70
2024/03/04 07:54:33;;;;;;;42.65;26.23;;;7.10;99.90;;;;;;4947705;28;20580;-70
2024/03/04 07:57:00;;;;;;;46.33;25.70;;;7.20;99.90;;;;;;4951205;28;20218;-70
2024/03/04 07:59:28;;;;;;;57.50;28.25;;;7.30;99.90;;;;;;4949807;28;20245;-70
2024/03/04 08:01:55;;;;;;;43.42;23.63;;;7.30;99.90;;;;;;4950463;28;20242;-71
2024/03/04 08:04:23;;;;;;;47.70;23.38;;;7.30;99.90;;;;;;4951060;28;20208;-70
2024/03/04 08:06:50;;;;;;;45.92;21.85;;;7.40;99.90;;;;;;4945709;28;20650;-70
2024/03/04 08:09:18;;;;;;;61.97;27.38;;;7.40;99.90;;;;;;4949514;28;20208;-70
2024/03/04 08:11:45;;;;;;;48.17;23.90;;;7.50;99.90;;;;;;4951551;28;20232;-70
2024/03/04 08:14:11;;;;;;;44.90;22.33;;;7.50;99.90;;;;;;4953404;28;20246;-70
2024/03/04 08:16:38;;;;;;;39.25;21.77;;;7.60;99.90;;;;;;4944926;28;20205;-70
2024/03/04 08:19:05;;;;;;;59.15;26.73;;;7.60;99.90;;;;;;4941489;28;20602;-70
2024/03/04 08:21:32;;;;;;;55.85;25.38;;;7.70;99.90;;;;;;4942182;28;20236;-70
2024/03/04 08:23:59;;;;;;;51.60;25.67;;;7.80;99.90;;;;;;4945327;28;21653;-71
2024/03/04 08:26:27;;;;;;;54.58;25.40;;;7.80;99.90;;;;;;4949626;28;20208;-70
2024/03/04 08:28:58;;;;;;;52.25;23.98;;;7.90;99.90;;;;;;4946835;28;20209;-70
2024/03/04 08:31:24;;;;;;;44.10;22.75;;;7.90;99.90;;;;;;4947433;28;20235;-69
2024/03/04 08:33:51;;;;;;;44.75;22.23;;;7.90;99.90;;;;;;4941090;28;20217;-70
2024/03/04 08:36:18;;;;;;;42.97;22.00;;;8.00;99.90;;;;;;4942331;28;20669;-69
2024/03/04 08:38:44;;;;;;;40.00;22.33;;;8.00;99.90;;;;;;4944724;28;20224;-70
2024/03/04 08:41:11;;;;;;;35.33;20.75;;;8.00;99.90;;;;;;4940992;28;20715;-70
2024/03/04 08:43:40;;;;;;;48.17;25.17;;;8.00;99.90;;;;;;4948555;28;20296;-70
2024/03/04 08:46:06;;;;;;;45.25;23.77;;;8.10;99.90;;;;;;4947561;28;20257;-70
2024/03/04 08:48:33;;;;;;;47.10;23.17;;;8.20;99.90;;;;;;4947938;28;20206;-70
2024/03/04 08:51:00;;;;;;;42.00;23.25;;;8.20;99.90;;;;;;4947898;28;20232;-70
2024/03/04 08:53:29;;;;;;;45.17;23.55;;;8.30;99.90;;;;;;4947738;28;20227;-70
2024/03/04 08:55:56;;;;;;;50.58;26.77;;;8.30;99.90;;;;;;4948456;28;20209;-70
2024/03/04 08:58:23;;;;;;;52.05;22.55;;;8.30;99.90;;;;;;4949735;28;20699;-70
2024/03/04 09:00:51;;;;;;;41.88;22.33;;;8.30;99.90;;;;;;4946957;28;20267;-70
2024/03/04 09:03:18;;;;;;;40.67;22.05;;;8.40;99.90;;;;;;4946660;28;20209;-70
2024/03/04 09:05:45;;;;;;;45.55;22.77;;;8.30;99.90;;;;;;4946064;28;20317;-70
2024/03/04 09:08:12;;;;;;;30.83;19.38;;;8.30;99.90;;;;;;4946955;28;20216;-69
2024/03/04 09:10:40;;;;;;;44.05;22.48;;;8.40;99.90;;;;;;4944603;28;20313;-69
2024/03/04 09:13:07;;;;;;;44.70;23.17;;;8.40;99.90;;;;;;4943394;28;20654;-70
2024/03/04 09:15:33;;;;;;;42.90;22.38;;;8.40;99.90;;;;;;4942742;28;20214;-70
2024/03/04 09:18:01;;;;;;;39.33;22.67;;;8.50;99.90;;;;;;4949734;28;20212;-70
2024/03/04 09:20:28;;;;;;;41.80;21.45;;;8.40;99.90;;;;;;4949756;28;20206;-70
2024/03/04 09:22:55;;;;;;;39.45;22.73;;;8.50;99.90;;;;;;4945509;28;20205;-70
2024/03/04 09:25:21;;;;;;;46.67;21.85;;;8.60;99.90;;;;;;4945958;28;20636;-70
2024/03/04 09:27:48;;;;;;;40.25;21.90;;;8.60;99.90;;;;;;4944148;28;20214;-69
2024/03/04 09:30:15;;;;;;;40.13;21.83;;;8.70;99.90;;;;;;4942968;28;20216;-69
2024/03/04 09:32:42;;;;;;;36.58;22.05;;;8.80;99.90;;;;;;4946782;28;20280;-70
2024/03/04 09:35:11;;;;;;;44.75;22.95;;;8.80;99.90;;;;;;4943115;28;20628;-70
2024/03/04 09:37:38;;;;;;;44.50;21.85;;;8.80;99.90;;;;;;4949069;28;20215;-71
2024/03/04 09:40:09;;;;;;;40.03;23.58;;;8.90;99.90;;;;;;4950225;28;20568;-72
2024/03/04 09:42:38;;;;;;;46.40;24.95;;;9.00;99.90;;;;;;4946993;28;20235;-71
2024/03/04 09:45:07;;;;;;;51.33;23.35;;;9.10;99.90;;;;;;4949475;28;20209;-71
2024/03/04 09:47:36;;;;;;;53.28;26.95;;;9.10;99.90;;;;;;4948757;28;20209;-70
2024/03/04 09:50:03;;;;;;;41.47;19.88;;;9.20;99.90;;;;;;4952280;28;20205;-70
2024/03/04 09:52:34;;;;;;;46.95;25.05;;;9.20;99.90;;;;;;4950293;28;20229;-70
2024/03/04 09:55:00;;;;;;;46.78;23.20;;;9.30;99.90;;;;;;4949118;28;20215;-70
2024/03/04 09:57:27;;;;;;;38.45;22.42;;;9.30;99.90;;;;;;4946109;28;20203;-71
2024/03/04 09:59:54;;;;;;;45.78;24.05;;;9.30;99.90;;;;;;4943150;28;20220;-71
2024/03/04 10:02:21;;;;;;;37.90;24.45;;;9.30;99.90;;;;;;4940171;28;20409;-70
2024/03/04 10:04:49;;;;;;;46.38;21.67;;;9.20;99.90;;;;;;4947822;28;20209;-70
2024/03/04 10:07:16;;;;;;;35.13;22.05;;;9.20;99.90;;;;;;4951453;28;20600;-71
2024/03/04 10:09:44;;;;;;;44.17;24.15;;;9.20;99.90;;;;;;4947694;28;20205;-71
2024/03/04 10:12:11;;;;;;;51.08;22.23;;;9.20;99.90;;;;;;4945986;28;20237;-71
2024/03/04 10:15:05;;;;;;;40.05;23.40;;;9.20;99.90;;;;;;4952131;28;20607;-71
2024/03/04 10:17:32;;;;;;;33.05;18.27;;;9.20;99.90;;;;;;4950185;28;20684;-70
2024/03/04 10:19:59;;;;;;;42.13;21.20;;;9.20;99.90;;;;;;4949563;28;20222;-70
2024/03/04 10:22:26;;;;;;;50.58;23.55;;;9.20;99.90;;;;;;4947964;28;20315;-70
2024/03/04 10:25:02;;;;;;;51.25;22.40;;;9.30;99.90;;;;;;4947175;28;20216;-70
2024/03/04 10:27:29;;;;;;;53.00;23.10;;;9.30;99.90;;;;;;4949771;28;20216;-70
2024/03/04 10:30:10;;;;;;;44.33;22.25;;;9.40;99.90;;;;;;4940265;28;20214;-71
2024/03/04 10:32:37;;;;;;;49.95;24.50;;;9.50;99.90;;;;;;4945501;28;20229;-71
2024/03/04 10:35:05;;;;;;;54.45;26.60;;;9.60;99.90;;;;;;4948741;28;20209;-71
2024/03/04 10:37:32;;;;;;;44.40;24.67;;;9.70;99.90;;;;;;4949391;28;20313;-71
2024/03/04 10:40:00;;;;;;;69.05;27.48;;;9.80;99.90;;;;;;4951656;28;20209;-71
2024/03/04 10:42:26;;;;;;;46.75;22.13;;;9.80;99.90;;;;;;4948643;28;20225;-71
2024/03/04 10:44:54;;;;;;;46.75;23.38;;;9.80;99.90;;;;;;4951002;28;20231;-71
2024/03/04 10:47:22;;;;;;;52.13;25.27;;;9.80;99.90;;;;;;4948370;28;20587;-71
2024/03/04 10:49:50;;;;;;;43.73;22.87;;;9.80;99.90;;;;;;4946887;28;20242;-71
2024/03/04 10:52:17;;;;;;;45.60;25.83;;;9.90;99.90;;;;;;4948996;28;20602;-71
2024/03/04 10:54:44;;;;;;;47.90;24.42;;;9.90;99.90;;;;;;4945899;28;20215;-70
2024/03/04 10:57:26;;;;;;;43.60;23.65;;;10.00;99.90;;;;;;4947986;28;20215;-70
2024/03/04 10:59:55;;;;;;;55.20;26.23;;;10.10;99.90;;;;;;4948698;28;20263;-71
2024/03/04 11:02:32;;;;;;;51.03;26.50;;;10.20;99.90;;;;;;4950111;28;20623;-70
2024/03/04 11:05:02;;;;;;;44.33;24.70;;;10.20;99.90;;;;;;4941369;28;20215;-71
2024/03/04 11:07:32;;;;;;;48.83;23.63;;;10.30;99.90;;;;;;4944470;28;20207;-70
2024/03/04 11:10:06;;;;;;;37.87;22.87;;;10.30;99.90;;;;;;4949377;28;21143;-71
2024/03/04 11:12:37;;;;;;;43.77;24.97;;;10.40;99.90;;;;;;4947435;28;20490;-71
2024/03/04 11:15:10;;;;;;;43.40;24.47;;;10.50;99.90;;;;;;4950172;28;20506;-71
2024/03/04 11:17:42;;;;;;;39.30;25.43;;;10.60;99.90;;;;;;4947046;28;20577;-71
2024/03/04 11:20:11;;;;;;;38.00;22.43;;;10.70;99.90;;;;;;4946817;28;21111;-70
2024/03/04 11:22:38;;;;;;;40.90;22.20;;;10.80;99.90;;;;;;4946571;28;20473;-70
2024/03/04 11:25:08;;;;;;;45.77;22.60;;;10.80;99.90;;;;;;4944468;28;20474;-70
2024/03/04 11:27:37;;;;;;;38.60;21.10;;;10.90;99.90;;;;;;4944413;28;21187;-72
2024/03/04 11:30:05;;;;;;;44.40;23.53;;;11.00;99.90;;;;;;4948134;28;20460;-70
2024/03/04 11:32:33;;;;;;;38.10;23.77;;;11.00;99.90;;;;;;4946338;28;20528;-70
2024/03/04 11:35:05;;;;;;;47.10;23.93;;;11.10;99.90;;;;;;4948463;28;20555;-70
2024/03/04 11:37:33;;;;;;;40.33;23.43;;;11.20;99.90;;;;;;4946895;28;20983;-70
2024/03/04 11:40:02;;;;;;;47.57;23.70;;;11.30;99.90;;;;;;4948719;28;20500;-70
2024/03/04 11:42:40;;;;;;;41.60;22.80;;;11.30;99.90;;;;;;4946623;28;20567;-70
2024/03/04 11:45:08;;;;;;;40.47;22.00;;;11.40;99.90;;;;;;4946759;29;20985;-70
2024/03/04 11:47:35;;;;;;;40.50;22.87;;;11.50;99.90;;;;;;4945546;28;20469;-71
2024/03/04 11:50:05;;;;;;;40.20;23.87;;;11.50;99.90;;;;;;4946324;28;20483;-71
2024/03/04 11:52:38;;;;;;;39.67;22.83;;;11.60;99.90;;;;;;4947902;28;20495;-70
2024/03/04 11:55:08;;;;;;;44.53;22.53;;;11.60;99.90;;;;;;4948240;28;20476;-71
2024/03/04 11:57:35;;;;;;;41.13;23.50;;;11.60;99.90;;;;;;4947388;28;20471;-71
2024/03/04 12:00:09;;;;;;;34.23;21.20;;;11.70;99.90;;;;;;4947029;28;20555;-71
2024/03/04 12:02:36;;;;;;;47.23;25.00;;;11.70;99.90;;;;;;4946026;28;20508;-70
2024/03/04 12:05:03;;;;;;;35.67;22.97;;;11.70;99.90;;;;;;4945567;28;20523;-71
2024/03/04 12:07:30;;;;;;;38.53;22.60;;;11.70;99.90;;;;;;4948191;28;20475;-71
2024/03/04 12:10:00;;;;;;;43.23;23.10;;;11.70;99.90;;;;;;4947649;28;20531;-71
2024/03/04 12:12:27;;;;;;;39.30;23.17;;;11.70;99.90;;;;;;4947683;28;20492;-70
2024/03/04 12:14:54;;;;;;;49.30;24.70;;;11.60;99.90;;;;;;4946287;28;20527;-71
2024/03/04 12:17:23;;;;;;;39.83;23.70;;;11.60;99.90;;;;;;4948055;28;20987;-69
2024/03/04 12:19:53;;;;;;;40.30;23.67;;;11.60;99.90;;;;;;4943675;28;20490;-72
2024/03/04 12:22:25;;;;;;;44.87;25.43;;;11.70;99.90;;;;;;4945910;28;20497;-71
2024/03/04 12:25:03;;;;;;;38.27;22.17;;;11.70;99.90;;;;;;4947965;28;20530;-71
2024/03/04 12:27:30;;;;;;;40.60;23.23;;;11.70;99.90;;;;;;4950235;29;20476;-71
2024/03/04 12:30:12;;;;;;;42.43;23.07;;;11.70;99.90;;;;;;4946523;28;20472;-71
2024/03/04 12:32:41;;;;;;;41.70;23.63;;;11.80;99.90;;;;;;4944342;28;20500;-70
2024/03/04 12:35:19;;;;;;;46.47;25.00;;;12.00;99.90;;;;;;4942272;28;20472;-71
2024/03/04 12:37:48;;;;;;;43.67;23.33;;;12.10;99.90;;;;;;4941079;28;20480;-71
2024/03/04 12:40:15;;;;;;;43.77;25.87;;;12.20;99.90;;;;;;4949370;28;20945;-71
2024/03/04 12:42:42;;;;;;;40.30;22.80;;;12.30;99.90;;;;;;4946625;28;20475;-71
2024/03/04 12:45:10;;;;;;;33.40;22.70;;;12.40;99.90;;;;;;4947832;28;20840;-72
2024/03/04 12:47:37;;;;;;;42.03;23.17;;;12.50;99.90;;;;;;4946395;28;20468;-72
2024/03/04 12:50:08;;;;;;;42.27;22.87;;;12.60;99.90;;;;;;4945710;28;20477;-71
2024/03/04 12:52:36;;;;;;;37.80;21.30;;;12.80;99.90;;;;;;4946835;28;20544;-71
2024/03/04 12:55:04;;;;;;;41.67;22.67;;;13.00;99.90;;;;;;4944338;28;20507;-71
2024/03/04 12:57:31;;;;;;;33.23;20.63;;;13.20;99.90;;;;;;4948023;28;20497;-71
2024/03/04 12:59:59;;;;;;;35.57;22.07;;;13.30;99.90;;;;;;4945819;28;20479;-72
2024/03/04 13:02:25;;;;;;;39.47;22.47;;;13.30;99.90;;;;;;4945358;28;20497;-72
2024/03/04 13:04:53;;;;;;;30.80;20.50;;;13.30;99.90;;;;;;4940628;28;20466;-71
2024/03/04 13:07:21;;;;;;;29.00;19.77;;;13.30;99.90;;;;;;4948538;28;20868;-72
2024/03/04 13:09:48;;;;;;;28.37;18.43;;;13.30;99.90;;;;;;4946257;28;20476;-71
2024/03/04 13:12:15;;;;;;;36.97;22.03;;;13.30;99.90;;;;;;4947868;28;20508;-72
2024/03/04 13:14:42;;;;;;;31.53;19.60;;;13.30;99.90;;;;;;4948706;28;20472;-71
2024/03/04 13:17:09;;;;;;;33.22;21.40;;;13.30;99.90;;;;;;4944636;28;20463;-72
2024/03/04 13:19:35;;;;;;;30.90;19.17;;;13.30;99.90;;;;;;4948371;28;20231;-71
2024/03/04 13:22:02;;;;;;;36.23;19.73;;;13.30;99.90;;;;;;4949238;28;20510;-71
2024/03/04 13:24:30;;;;;;;30.70;19.60;;;13.40;99.90;;;;;;4950199;28;20486;-71
2024/03/04 13:26:57;;;;;;;29.27;18.10;;;13.50;99.90;;;;;;4948952;28;20476;-72
2024/03/04 13:29:24;;;;;;;31.43;20.50;;;13.50;99.90;;;;;;4953360;28;20472;-70
2024/03/04 13:31:50;;;;;;;31.07;19.53;;;13.50;99.90;;;;;;4947019;28;20512;-71
2024/03/04 13:34:17;;;;;;;33.30;19.90;;;13.60;99.90;;;;;;4953175;28;20488;-71
2024/03/04 13:36:44;;;;;;;29.27;18.00;;;13.60;99.90;;;;;;4951718;28;20468;-71
2024/03/04 13:39:12;;;;;;;39.60;21.00;;;13.60;99.90;;;;;;4952560;28;20976;-71
2024/03/04 13:41:40;;;;;;;33.47;19.43;;;13.60;99.90;;;;;;4950441;28;20492;-71
2024/03/04 13:44:07;;;;;;;23.97;17.50;;;13.60;99.90;;;;;;4950616;28;20472;-71
2024/03/04 13:46:35;;;;;;;31.93;19.60;;;13.60;99.90;;;;;;4950773;28;20825;-71
2024/03/04 13:49:01;;;;;;;31.00;19.43;;;13.60;99.90;;;;;;4949283;28;20480;-71
2024/03/04 13:51:28;;;;;;;29.30;18.10;;;13.70;99.90;;;;;;4950659;28;21521;-72
2024/03/04 13:53:55;;;;;;;27.87;17.20;;;13.70;99.90;;;;;;4951217;28;21366;-72
2024/03/04 13:56:22;;;;;;;25.73;17.63;;;13.60;99.90;;;;;;4953202;28;20531;-71
2024/03/04 13:58:51;;;;;;;31.60;18.53;;;13.60;99.90;;;;;;4952040;28;20480;-72
2024/03/04 14:01:18;;;;;;;22.87;16.23;;;13.60;99.90;;;;;;4949840;28;20493;-71
2024/03/04 14:03:45;;;;;;;28.97;16.73;;;13.60;99.90;;;;;;4950930;28;20491;-71
2024/03/04 14:06:12;;;;;;;25.00;18.17;;;13.60;99.90;;;;;;4947168;28;20477;-71
2024/03/04 14:08:39;;;;;;;26.67;17.30;;;13.60;99.90;;;;;;4949343;28;20500;-72
2024/03/04 14:11:06;;;;;;;27.40;15.77;;;13.60;99.90;;;;;;4948755;28;21037;-71
2024/03/04 14:13:32;;;;;;;25.07;17.30;;;13.60;99.90;;;;;;4947090;28;20508;-71
2024/03/04 14:16:00;;;;;;;28.67;17.50;;;13.60;99.90;;;;;;4946517;28;20588;-71
2024/03/04 14:18:27;;;;;;;22.70;17.27;;;13.60;99.90;;;;;;4949107;28;20476;-71
2024/03/04 14:20:54;;;;;;;26.83;17.10;;;13.60;99.90;;;;;;4949427;28;21138;-71
2024/03/04 14:23:24;;;;;;;26.53;17.60;;;13.60;99.90;;;;;;4952395;28;20473;-72
2024/03/04 14:25:51;;;;;;;28.90;18.20;;;13.60;99.90;;;;;;4950295;28;20465;-72
2024/03/04 14:28:18;;;;;;;24.77;17.17;;;13.70;99.90;;;;;;4951203;28;20468;-72
2024/03/04 14:30:45;;;;;;;19.97;15.50;;;13.70;99.90;;;;;;4947516;28;20499;-72
2024/03/04 14:33:13;;;;;;;26.43;16.80;;;13.70;99.90;;;;;;4942089;28;20512;-72
2024/03/04 14:35:39;;;;;;;26.57;15.17;;;13.80;99.90;;;;;;4947190;28;20473;-72
2024/03/04 14:38:06;;;;;;;25.90;16.43;;;13.80;99.90;;;;;;4949489;28;22330;-70
2024/03/04 14:40:34;;;;;;;28.47;15.63;;;13.80;99.90;;;;;;4946796;28;21178;-71
2024/03/04 14:43:00;;;;;;;24.00;16.17;;;13.90;99.90;;;;;;4946379;28;20471;-70
2024/03/04 14:45:27;;;;;;;22.33;14.87;;;13.90;99.90;;;;;;4945137;28;20484;-71
2024/03/04 14:47:54;;;;;;;31.47;15.93;;;13.90;99.90;;;;;;4947868;28;20473;-71
2024/03/04 14:50:23;;;;;;;27.80;15.47;;;14.00;99.90;;;;;;4948531;28;20967;-71
2024/03/04 14:52:51;;;;;;;28.63;17.20;;;13.90;99.90;;;;;;4950694;28;20473;-71
2024/03/04 14:55:18;;;;;;;30.93;17.97;;;13.90;99.90;;;;;;4947717;28;20535;-71
2024/03/04 14:57:45;;;;;;;23.70;16.90;;;13.90;99.90;;;;;;4950124;28;20469;-70
2024/03/04 15:00:12;;;;;;;36.13;18.93;;;13.90;99.90;;;;;;4946404;28;20867;-71
2024/03/04 15:02:40;;;;;;;29.03;17.83;;;13.90;99.90;;;;;;4942472;28;20465;-72
2024/03/04 15:05:08;;;;;;;33.13;17.90;;;13.90;99.90;;;;;;4948726;28;20518;-72
2024/03/04 15:07:37;;;;;;;26.87;17.23;;;13.90;99.90;;;;;;4947565;28;20468;-71
2024/03/04 15:10:08;;;;;;;24.67;17.20;;;13.90;99.90;;;;;;4945902;28;20856;-71
2024/03/04 15:12:35;;;;;;;24.60;16.20;;;14.00;99.90;;;;;;4946642;28;20917;-71
2024/03/04 15:15:05;;;;;;;32.80;19.17;;;14.00;99.90;;;;;;4945420;28;20492;-71
2024/03/04 15:17:32;;;;;;;25.27;16.17;;;14.00;99.90;;;;;;4951477;28;20469;-70
2024/03/04 15:20:00;;;;;;;29.20;16.70;;;14.00;99.90;;;;;;4950563;28;20465;-70
2024/03/04 15:22:27;;;;;;;25.20;16.70;;;14.00;99.90;;;;;;4947536;28;20492;-70
2024/03/04 15:24:55;;;;;;;26.33;16.23;;;14.00;99.90;;;;;;4946905;28;20465;-71
2024/03/04 15:27:22;;;;;;;28.00;17.73;;;14.00;99.90;;;;;;4949617;28;20480;-70
2024/03/04 15:29:49;;;;;;;29.83;17.90;;;14.00;99.90;;;;;;4947484;28;20568;-70
2024/03/04 15:32:15;;;;;;;31.80;18.70;;;14.00;99.90;;;;;;4948027;28;20507;-71
2024/03/04 15:34:42;;;;;;;27.50;17.30;;;13.90;99.90;;;;;;4948057;28;20503;-72
2024/03/04 15:37:10;;;;;;;27.50;17.80;;;13.90;99.90;;;;;;4943855;28;20484;-71
2024/03/04 15:39:37;;;;;;;23.93;15.30;;;13.80;99.90;;;;;;4943003;28;20485;-71
2024/03/04 15:42:06;;;;;;;26.70;16.40;;;13.80;99.90;;;;;;4948934;28;20492;-71
2024/03/04 15:44:32;;;;;;;31.67;17.77;;;13.80;99.90;;;;;;4947613;28;20465;-71
2024/03/04 15:46:59;;;;;;;25.53;16.47;;;13.70;99.90;;;;;;4950478;28;20472;-70
2024/03/04 15:49:26;;;;;;;26.77;16.70;;;13.70;99.90;;;;;;4938617;28;20924;-70
2024/03/04 15:51:52;;;;;;;28.33;17.30;;;13.70;99.90;;;;;;4942957;28;20484;-71
2024/03/04 15:54:19;;;;;;;30.20;16.17;;;13.70;99.90;;;;;;4949767;28;20484;-71
2024/03/04 15:56:46;;;;;;;20.40;14.97;;;13.70;99.90;;;;;;4948682;28;20839;-72
2024/03/04 15:59:14;;;;;;;24.13;15.80;;;13.70;99.90;;;;;;4948292;28;20469;-72
2024/03/04 16:01:43;;;;;;;26.10;17.20;;;13.70;99.90;;;;;;4947720;28;20575;-71
2024/03/04 16:04:09;;;;;;;24.93;16.23;;;13.60;99.90;;;;;;4950690;28;20468;-70
2024/03/04 16:06:38;;;;;;;24.00;15.63;;;13.60;99.90;;;;;;4947924;28;20521;-71
2024/03/04 16:09:08;;;;;;;21.10;15.00;;;13.60;99.90;;;;;;4948412;28;20479;-71
2024/03/04 16:11:34;;;;;;;27.10;16.00;;;13.50;99.90;;;;;;4945086;28;20528;-71
2024/03/04 16:14:01;;;;;;;31.47;17.97;;;13.50;99.90;;;;;;4950530;28;20492;-71
2024/03/04 16:16:30;;;;;;;38.63;19.73;;;13.50;99.90;;;;;;4947888;28;22699;-72
2024/03/04 16:18:56;;;;;;;34.87;20.13;;;13.50;99.90;;;;;;4945864;28;20496;-71
2024/03/04 16:21:23;;;;;;;33.80;19.30;;;13.50;99.90;;;;;;4948803;28;20499;-71
2024/03/04 16:23:51;;;;;;;33.50;19.77;;;13.50;99.90;;;;;;4947860;28;20476;-70
2024/03/04 16:26:18;;;;;;;28.10;18.63;;;13.40;99.90;;;;;;4944596;28;20469;-71
2024/03/04 16:28:45;;;;;;;29.37;18.00;;;13.40;99.90;;;;;;4948679;28;20476;-71
2024/03/04 16:31:11;;;;;;;29.83;17.97;;;13.40;99.90;;;;;;4947326;28;20597;-71
2024/03/04 16:33:40;;;;;;;27.17;16.77;;;13.40;99.90;;;;;;4949435;28;20495;-70
2024/03/04 16:36:07;;;;;;;24.00;16.27;;;13.30;99.90;;;;;;4947045;28;21863;-70
2024/03/04 16:38:34;;;;;;;25.97;16.83;;;13.30;99.90;;;;;;4947777;28;20855;-71
2024/03/04 16:41:03;;;;;;;25.47;17.73;;;13.30;99.90;;;;;;4948434;28;20480;-70
2024/03/04 16:43:30;;;;;;;30.73;19.40;;;13.20;99.90;;;;;;4948925;28;20456;-72
2024/03/04 16:45:57;;;;;;;27.87;18.30;;;13.10;99.90;;;;;;4944030;28;20477;-72
2024/03/04 16:48:24;;;;;;;27.17;17.97;;;13.10;99.90;;;;;;4948816;28;20504;-71
2024/03/04 16:50:53;;;;;;;23.90;16.50;;;13.10;99.90;;;;;;4937027;28;20964;-71
2024/03/04 16:53:21;;;;;;;27.10;18.23;;;13.00;99.90;;;;;;4942522;28;20476;-73
2024/03/04 16:55:48;;;;;;;31.13;19.23;;;13.00;99.90;;;;;;4950929;28;20588;-73
2024/03/04 16:58:15;;;;;;;26.53;17.67;;;12.90;99.90;;;;;;4949489;28;20531;-73
2024/03/04 17:00:43;;;;;;;25.27;17.53;;;12.90;99.90;;;;;;4948605;28;20500;-73
2024/03/04 17:03:10;;;;;;;33.40;19.37;;;12.90;99.90;;;;;;4944573;28;20468;-73
2024/03/04 17:05:36;;;;;;;34.63;18.80;;;12.80;99.90;;;;;;4941579;28;20861;-73
2024/03/04 17:08:05;;;;;;;24.50;18.20;;;12.80;99.90;;;;;;4942883;28;20489;-73
2024/03/04 17:10:32;;;;;;;27.10;18.07;;;12.80;99.90;;;;;;4947047;28;20472;-73
2024/03/04 17:12:58;;;;;;;29.90;17.60;;;12.70;99.90;;;;;;4942580;28;20482;-73
2024/03/04 17:15:26;;;;;;;27.43;18.47;;;12.70;99.90;;;;;;4946285;28;20492;-71
2024/03/04 17:17:53;;;;;;;28.17;17.83;;;12.60;99.90;;;;;;4946209;28;20504;-73
2024/03/04 17:20:21;;;;;;;24.60;17.73;;;12.60;99.90;;;;;;4943688;28;20987;-73
2024/03/04 17:22:48;;;;;;;26.43;18.07;;;12.50;99.90;;;;;;4940291;28;20532;-73
2024/03/04 17:25:16;;;;;;;33.80;19.17;;;12.50;99.90;;;;;;4940992;28;20475;-73
2024/03/04 17:27:43;;;;;;;30.83;18.97;;;12.40;99.90;;;;;;4947841;28;20477;-74
2024/03/04 17:30:12;;;;;;;27.90;17.10;;;12.40;99.90;;;;;;4943963;28;20490;-71
2024/03/04 17:32:38;;;;;;;29.10;19.07;;;12.40;99.90;;;;;;4941165;28;20496;-70